sensor_id;sensor_type;location;lat;lon;timestamp;pressure;altitude;pressure_sealevel;temperature;humidity
6216;BME280;3141;49.234;9.326;2023-05-09T00:00:11;99941.50;;;18.08;86.72
6216;BME280;3141;49.234;9.326;2023-05-09T00:00:54;99939.28;;;18.18;86.41
6216;BME280;3141;49.234;9.326;2023-05-09T00:01:36;99937.63;;;18.17;85.74
6216;BME280;3141;49.234;9.326;2023-05-09T00:02:20;99940.06;;;18.12;86.07
6216;BME280;3141;49.234;9.326;2023-05-09T00:03:03;99943.38;;;18.14;86.32
6216;BME280;3141;49.234;9.326;2023-05-09T00:03:47;99937.25;;;18.20;86.04
6216;BME280;3141;49.234;9.326;2023-05-09T00:04:29;99933.50;;;18.15;85.84
6216;BME280;3141;49.234;9.326;2023-05-09T00:05:11;99941.56;;;18.21;85.98
6216;BME280;3141;49.234;9.326;2023-05-09T00:05:55;99943.38;;;18.14;86.03
6216;BME280;3141;49.234;9.326;2023-05-09T00:06:38;99935.13;;;18.09;86.05
6216;BME280;3141;49.234;9.326;2023-05-09T00:07:20;99937.63;;;18.17;85.87
6216;BME280;3141;49.234;9.326;2023-05-09T00:08:03;99936.97;;;18.15;85.97
6216;BME280;3141;49.234;9.326;2023-05-09T00:08:45;99934.91;;;18.11;86.11
6216;BME280;3141;49.234;9.326;2023-05-09T00:09:27;99940.91;;;18.13;85.79
6216;BME280;3141;49.234;9.326;2023-05-09T00:10:10;99937.78;;;18.09;86.30
6216;BME280;3141;49.234;9.326;2023-05-09T00:10:52;99932.84;;;18.06;86.30
6216;BME280;3141;49.234;9.326;2023-05-09T00:11:34;99931.16;;;18.05;86.90
6216;BME280;3141;49.234;9.326;2023-05-09T00:12:17;99934.47;;;18.07;86.31
6216;BME280;3141;49.234;9.326;2023-05-09T00:12:59;99928.34;;;18.13;85.54
6216;BME280;3141;49.234;9.326;2023-05-09T00:13:42;99932.84;;;18.06;86.64
6216;BME280;3141;49.234;9.326;2023-05-09T00:14:25;99937.78;;;18.09;86.36
6216;BME280;3141;49.234;9.326;2023-05-09T00:15:09;99933.28;;;18.10;86.10
6216;BME280;3141;49.234;9.326;2023-05-09T00:15:51;99926.72;;;18.19;85.57
6216;BME280;3141;49.234;9.326;2023-05-09T00:16:35;99935.53;;;18.13;85.56
6216;BME280;3141;49.234;9.326;2023-05-09T00:17:17;99928.59;;;18.18;85.28
6216;BME280;3141;49.234;9.326;2023-05-09T00:18:00;99927.28;;;18.08;86.08
6216;BME280;3141;49.234;9.326;2023-05-09T00:18:42;99925.28;;;18.16;85.75
6216;BME280;3141;49.234;9.326;2023-05-09T00:19:25;99927.72;;;18.11;85.95
6216;BME280;3141;49.234;9.326;2023-05-09T00:20:08;99932.88;;;18.13;85.83
6216;BME280;3141;49.234;9.326;2023-05-09T00:20:53;99925.91;;;18.18;85.83
6216;BME280;3141;49.234;9.326;2023-05-09T00:21:35;99928.78;;;18.17;85.58
6216;BME280;3141;49.234;9.326;2023-05-09T00:22:18;99926.53;;;18.20;85.45
6216;BME280;3141;49.234;9.326;2023-05-09T00:23:03;99933.97;;;18.25;85.16
6216;BME280;3141;49.234;9.326;2023-05-09T00:23:46;99935.66;;;18.32;84.84
6216;BME280;3141;49.234;9.326;2023-05-09T00:24:28;99924.75;;;18.34;84.36
6216;BME280;3141;49.234;9.326;2023-05-09T00:25:11;99928.44;;;18.33;84.42
6216;BME280;3141;49.234;9.326;2023-05-09T00:25:53;99923.75;;;18.41;83.96
6216;BME280;3141;49.234;9.326;2023-05-09T00:26:35;99926.19;;;18.36;83.74
6216;BME280;3141;49.234;9.326;2023-05-09T00:27:18;99928.66;;;18.38;84.06
6216;BME280;3141;49.234;9.326;2023-05-09T00:28:00;99928.66;;;18.38;83.87
6216;BME280;3141;49.234;9.326;2023-05-09T00:28:42;99922.97;;;18.48;83.70
6216;BME280;3141;49.234;9.326;2023-05-09T00:29:25;99931.03;;;18.54;83.12
6216;BME280;3141;49.234;9.326;2023-05-09T00:30:07;99924.84;;;18.54;83.14
6216;BME280;3141;49.234;9.326;2023-05-09T00:30:50;99927.91;;;18.51;83.52
6216;BME280;3141;49.234;9.326;2023-05-09T00:31:32;99922.13;;;18.47;83.43
6216;BME280;3141;49.234;9.326;2023-05-09T00:32:14;99923.19;;;18.53;83.00
6216;BME280;3141;49.234;9.326;2023-05-09T00:32:56;99923.41;;;18.51;82.84
6216;BME280;3141;49.234;9.326;2023-05-09T00:33:39;99926.50;;;18.55;82.90
6216;BME280;3141;49.234;9.326;2023-05-09T00:34:21;99926.28;;;18.50;82.96
6216;BME280;3141;49.234;9.326;2023-05-09T00:35:04;99928.31;;;18.48;82.93
6216;BME280;3141;49.234;9.326;2023-05-09T00:35:46;99921.94;;;18.49;82.93
6216;BME280;3141;49.234;9.326;2023-05-09T00:36:28;99919.66;;;18.46;82.79
6216;BME280;3141;49.234;9.326;2023-05-09T00:37:11;99924.41;;;18.50;82.66
6216;BME280;3141;49.234;9.326;2023-05-09T00:37:53;99914.94;;;18.48;82.73
6216;BME280;3141;49.234;9.326;2023-05-09T00:38:36;99920.72;;;18.45;82.96
6216;BME280;3141;49.234;9.326;2023-05-09T00:39:18;99919.66;;;18.46;82.69
6216;BME280;3141;49.234;9.326;2023-05-09T00:40:01;99922.56;;;18.51;82.45
6216;BME280;3141;49.234;9.326;2023-05-09T00:40:44;99921.31;;;18.47;83.00
6216;BME280;3141;49.234;9.326;2023-05-09T00:41:26;99922.75;;;18.42;83.15
6216;BME280;3141;49.234;9.326;2023-05-09T00:42:08;99915.34;;;18.45;82.60
6216;BME280;3141;49.234;9.326;2023-05-09T00:42:50;99919.25;;;18.49;82.74
6216;BME280;3141;49.234;9.326;2023-05-09T00:43:33;99912.25;;;18.41;82.87
6216;BME280;3141;49.234;9.326;2023-05-09T00:44:15;99913.25;;;18.40;83.20
6216;BME280;3141;49.234;9.326;2023-05-09T00:44:58;99912.59;;;18.38;83.14
6216;BME280;3141;49.234;9.326;2023-05-09T00:45:42;99910.13;;;18.36;83.25
6216;BME280;3141;49.234;9.326;2023-05-09T00:46:24;99913.00;;;18.35;83.52
6216;BME280;3141;49.234;9.326;2023-05-09T00:47:07;99909.75;;;18.39;82.86
6216;BME280;3141;49.234;9.326;2023-05-09T00:47:49;99906.22;;;18.32;83.25
6216;BME280;3141;49.234;9.326;2023-05-09T00:48:32;99906.78;;;18.28;83.38
6216;BME280;3141;49.234;9.326;2023-05-09T00:49:14;99907.63;;;18.28;83.61
6216;BME280;3141;49.234;9.326;2023-05-09T00:49:57;99905.59;;;18.30;83.44
6216;BME280;3141;49.234;9.326;2023-05-09T00:50:39;99905.97;;;18.27;83.35
6216;BME280;3141;49.234;9.326;2023-05-09T00:51:22;99904.31;;;18.26;83.58
6216;BME280;3141;49.234;9.326;2023-05-09T00:52:04;99904.72;;;18.23;83.89
6216;BME280;3141;49.234;9.326;2023-05-09T00:52:47;99911.09;;;18.22;83.78
6216;BME280;3141;49.234;9.326;2023-05-09T00:53:29;99904.72;;;18.23;83.78
6216;BME280;3141;49.234;9.326;2023-05-09T00:54:12;99903.88;;;18.16;83.70
6216;BME280;3141;49.234;9.326;2023-05-09T00:54:54;99901.19;;;18.16;84.10
6216;BME280;3141;49.234;9.326;2023-05-09T00:55:37;99903.00;;;18.09;84.53
6216;BME280;3141;49.234;9.326;2023-05-09T00:56:19;99898.09;;;18.13;84.39
6216;BME280;3141;49.234;9.326;2023-05-09T00:57:03;99894.97;;;18.09;84.45
6216;BME280;3141;49.234;9.326;2023-05-09T00:57:45;99896.63;;;18.10;84.25
6216;BME280;3141;49.234;9.326;2023-05-09T00:58:28;99894.34;;;18.07;84.32
6216;BME280;3141;49.234;9.326;2023-05-09T00:59:10;99891.66;;;18.07;84.21
6216;BME280;3141;49.234;9.326;2023-05-09T00:59:53;99888.78;;;18.02;84.70
6216;BME280;3141;49.234;9.326;2023-05-09T01:00:36;99885.50;;;18.07;84.51
6216;BME280;3141;49.234;9.326;2023-05-09T01:01:18;99893.09;;;18.03;85.00
6216;BME280;3141;49.234;9.326;2023-05-09T01:02:00;99888.97;;;18.01;84.95
6216;BME280;3141;49.234;9.326;2023-05-09T01:02:45;99878.25;;;17.94;85.64
6216;BME280;3141;49.234;9.326;2023-05-09T01:03:27;99886.03;;;17.89;85.49
6216;BME280;3141;49.234;9.326;2023-05-09T01:04:11;99877.78;;;17.84;85.96
6216;BME280;3141;49.234;9.326;2023-05-09T01:04:55;99880.78;;;17.75;86.86
6216;BME280;3141;49.234;9.326;2023-05-09T01:06:58;99877.69;;;17.71;86.40
6216;BME280;3141;49.234;9.326;2023-05-09T01:07:49;99879.34;;;17.72;86.66
6216;BME280;3141;49.234;9.326;2023-05-09T01:08:54;99877.69;;;17.71;86.79
6216;BME280;3141;49.234;9.326;2023-05-09T01:09:50;99880.41;;;17.78;86.44
6216;BME280;3141;49.234;9.326;2023-05-09T01:10:46;99874.00;;;17.72;86.50
6216;BME280;3141;49.234;9.326;2023-05-09T01:11:38;99875.25;;;17.76;86.41
6216;BME280;3141;49.234;9.326;2023-05-09T01:12:36;99872.56;;;17.76;86.33
6216;BME280;3141;49.234;9.326;2023-05-09T01:13:32;99874.63;;;17.74;86.47
6216;BME280;3141;49.234;9.326;2023-05-09T01:14:31;99880.19;;;17.79;85.90
6216;BME280;3141;49.234;9.326;2023-05-09T01:15:28;99874.47;;;17.82;85.39
6216;BME280;3141;49.234;9.326;2023-05-09T01:16:30;99871.41;;;17.85;85.39
6216;BME280;3141;49.234;9.326;2023-05-09T01:18:33;99871.16;;;17.80;85.85
6216;BME280;3141;49.234;9.326;2023-05-09T01:19:53;99874.91;;;17.86;85.46
6216;BME280;3141;49.234;9.326;2023-05-09T01:20:43;99870.38;;;17.86;85.74
6216;BME280;3141;49.234;9.326;2023-05-09T01:21:29;99871.59;;;17.84;85.55
6216;BME280;3141;49.234;9.326;2023-05-09T01:22:13;99870.72;;;17.77;85.80
6216;BME280;3141;49.234;9.326;2023-05-09T01:25:27;99878.72;;;17.70;85.78
6216;BME280;3141;49.234;9.326;2023-05-09T01:26:24;99874.41;;;17.76;85.57
6216;BME280;3141;49.234;9.326;2023-05-09T01:29:46;99874.84;;;17.79;85.42
6216;BME280;3141;49.234;9.326;2023-05-09T01:30:30;99866.38;;;17.76;85.80
6216;BME280;3141;49.234;9.326;2023-05-09T01:31:13;99880.19;;;17.79;85.58
6216;BME280;3141;49.234;9.326;2023-05-09T01:31:56;99873.63;;;17.75;85.58
6216;BME280;3141;49.234;9.326;2023-05-09T01:32:41;99871.94;;;17.74;85.75
6216;BME280;3141;49.234;9.326;2023-05-09T01:33:25;99867.41;;;17.68;86.03
6216;BME280;3141;49.234;9.326;2023-05-09T01:34:10;99867.22;;;17.76;85.52
6216;BME280;3141;49.234;9.326;2023-05-09T01:34:54;99861.09;;;17.82;85.43
6216;BME280;3141;49.234;9.326;2023-05-09T01:35:38;99864.78;;;17.81;85.50
6216;BME280;3141;49.234;9.326;2023-05-09T01:36:26;99862.94;;;17.82;85.48
6216;BME280;3141;49.234;9.326;2023-05-09T01:37:13;99864.41;;;17.84;85.31
6216;BME280;3141;49.234;9.326;2023-05-09T01:37:57;99863.97;;;17.81;85.79
6216;BME280;3141;49.234;9.326;2023-05-09T01:38:41;99862.50;;;17.78;85.95
6216;BME280;3141;49.234;9.326;2023-05-09T01:39:25;99858.56;;;17.74;86.00
6216;BME280;3141;49.234;9.326;2023-05-09T01:40:13;99857.13;;;17.72;86.13
6216;BME280;3141;49.234;9.326;2023-05-09T01:40:56;99854.25;;;17.73;86.03
6216;BME280;3141;49.234;9.326;2023-05-09T01:41:40;99861.75;;;17.84;85.55
6216;BME280;3141;49.234;9.326;2023-05-09T01:42:24;99861.09;;;17.82;85.55
6216;BME280;3141;49.234;9.326;2023-05-09T01:43:09;99860.47;;;17.80;85.82
6216;BME280;3141;49.234;9.326;2023-05-09T01:43:55;99854.72;;;17.83;85.48
6216;BME280;3141;49.234;9.326;2023-05-09T01:44:41;99859.22;;;17.83;85.78
6216;BME280;3141;49.234;9.326;2023-05-09T01:45:24;99862.34;;;17.86;85.33
6216;BME280;3141;49.234;9.326;2023-05-09T01:46:08;99862.56;;;17.91;85.40
6216;BME280;3141;49.234;9.326;2023-05-09T01:46:53;99866.28;;;17.90;85.41
6216;BME280;3141;49.234;9.326;2023-05-09T01:47:37;99865.84;;;17.87;85.33
6216;BME280;3141;49.234;9.326;2023-05-09T01:48:22;99863.97;;;17.81;85.58
6216;BME280;3141;49.234;9.326;2023-05-09T01:49:07;99864.97;;;17.80;85.59
6216;BME280;3141;49.234;9.326;2023-05-09T01:49:51;99862.94;;;17.82;85.48
6216;BME280;3141;49.234;9.326;2023-05-09T01:50:34;99865.63;;;17.82;85.44
6216;BME280;3141;49.234;9.326;2023-05-09T01:51:18;99857.81;;;17.87;85.20
6216;BME280;3141;49.234;9.326;2023-05-09T01:52:07;99854.13;;;17.88;85.29
6216;BME280;3141;49.234;9.326;2023-05-09T01:52:54;99869.16;;;17.89;85.00
6216;BME280;3141;49.234;9.326;2023-05-09T01:53:37;99870.00;;;17.89;85.33
6216;BME280;3141;49.234;9.326;2023-05-09T01:54:21;99862.53;;;17.85;85.63
6216;BME280;3141;49.234;9.326;2023-05-09T01:55:05;99864.59;;;17.83;85.25
6216;BME280;3141;49.234;9.326;2023-05-09T01:55:48;99862.09;;;17.81;85.44
6216;BME280;3141;49.234;9.326;2023-05-09T01:56:33;99857.78;;;17.80;85.06
6216;BME280;3141;49.234;9.326;2023-05-09T01:57:17;99861.75;;;17.84;85.20
6216;BME280;3141;49.234;9.326;2023-05-09T01:58:02;99860.94;;;17.90;85.08
6216;BME280;3141;49.234;9.326;2023-05-09T01:58:45;99862.13;;;17.88;85.20
6216;BME280;3141;49.234;9.326;2023-05-09T01:59:33;99860.94;;;17.90;85.06
6216;BME280;3141;49.234;9.326;2023-05-09T02:00:16;99857.47;;;17.96;84.64
6216;BME280;3141;49.234;9.326;2023-05-09T02:01:01;99860.59;;;18.00;84.26
6216;BME280;3141;49.234;9.326;2023-05-09T02:01:45;99854.81;;;17.96;84.83
6216;BME280;3141;49.234;9.326;2023-05-09T02:02:28;99864.81;;;17.88;85.11
6216;BME280;3141;49.234;9.326;2023-05-09T02:03:10;99858.47;;;17.95;85.08
6216;BME280;3141;49.234;9.326;2023-05-09T02:03:53;99855.19;;;17.93;85.17
6216;BME280;3141;49.234;9.326;2023-05-09T02:04:35;99857.28;;;17.98;84.90
6216;BME280;3141;49.234;9.326;2023-05-09T02:05:20;99859.34;;;18.02;84.29
6216;BME280;3141;49.234;9.326;2023-05-09T02:06:04;99860.38;;;18.01;84.49
6216;BME280;3141;49.234;9.326;2023-05-09T02:06:48;99852.13;;;17.96;84.67
6216;BME280;3141;49.234;9.326;2023-05-09T02:07:32;99863.19;;;17.93;84.64
6216;BME280;3141;49.234;9.326;2023-05-09T02:08:17;99861.16;;;17.95;84.41
6216;BME280;3141;49.234;9.326;2023-05-09T02:09:02;99856.03;;;18.00;84.35
6216;BME280;3141;49.234;9.326;2023-05-09T02:09:45;99857.84;;;17.93;84.93
6216;BME280;3141;49.234;9.326;2023-05-09T02:10:28;99856.44;;;17.97;84.60
6216;BME280;3141;49.234;9.326;2023-05-09T02:11:10;99855.41;;;17.98;84.80
6216;BME280;3141;49.234;9.326;2023-05-09T02:11:53;99857.47;;;17.96;84.77
6216;BME280;3141;49.234;9.326;2023-05-09T02:12:35;99850.22;;;17.90;84.96
6216;BME280;3141;49.234;9.326;2023-05-09T02:13:17;99846.53;;;17.91;85.34
6216;BME280;3141;49.234;9.326;2023-05-09T02:14:00;99857.28;;;17.98;84.99
6216;BME280;3141;49.234;9.326;2023-05-09T02:14:42;99861.34;;;17.94;84.98
6216;BME280;3141;49.234;9.326;2023-05-09T02:15:25;99854.81;;;17.96;84.91
6216;BME280;3141;49.234;9.326;2023-05-09T02:16:08;99854.81;;;17.96;84.83
6216;BME280;3141;49.234;9.326;2023-05-09T02:16:51;99858.91;;;17.99;84.79
6216;BME280;3141;49.234;9.326;2023-05-09T02:17:33;99848.63;;;18.02;84.17
6216;BME280;3141;49.234;9.326;2023-05-09T02:18:16;99853.34;;;18.00;84.71
6216;BME280;3141;49.234;9.326;2023-05-09T02:18:58;99848.63;;;18.02;84.17
6216;BME280;3141;49.234;9.326;2023-05-09T02:19:40;99853.16;;;18.02;84.19
6216;BME280;3141;49.234;9.326;2023-05-09T02:20:23;99847.78;;;17.95;84.63
6216;BME280;3141;49.234;9.326;2023-05-09T02:21:05;99850.69;;;18.00;84.37
6216;BME280;3141;49.234;9.326;2023-05-09T02:21:48;99849.25;;;17.98;84.54
6216;BME280;3141;49.234;9.326;2023-05-09T02:22:30;99853.56;;;17.99;84.62
6216;BME280;3141;49.234;9.326;2023-05-09T02:23:13;99848.81;;;17.94;84.87
6216;BME280;3141;49.234;9.326;2023-05-09T02:23:55;99856.22;;;17.92;84.85
6216;BME280;3141;49.234;9.326;2023-05-09T02:24:38;99856.22;;;17.92;84.88
6216;BME280;3141;49.234;9.326;2023-05-09T02:25:21;99851.06;;;17.91;84.88
6216;BME280;3141;49.234;9.326;2023-05-09T02:26:04;99852.50;;;17.93;84.65
6216;BME280;3141;49.234;9.326;2023-05-09T02:26:47;99853.34;;;17.94;84.56
6216;BME280;3141;49.234;9.326;2023-05-09T02:27:32;99852.56;;;18.00;84.37
6216;BME280;3141;49.234;9.326;2023-05-09T02:28:17;99849.44;;;17.96;84.26
6216;BME280;3141;49.234;9.326;2023-05-09T02:29:01;99853.13;;;17.95;84.50
6216;BME280;3141;49.234;9.326;2023-05-09T02:29:49;99842.44;;;17.95;84.41
6216;BME280;3141;49.234;9.326;2023-05-09T02:30:35;99847.97;;;17.87;85.11
6216;BME280;3141;49.234;9.326;2023-05-09T02:31:21;99848.91;;;17.73;85.88
6216;BME280;3141;49.234;9.326;2023-05-09T02:32:07;99851.75;;;17.65;86.36
6216;BME280;3141;49.234;9.326;2023-05-09T02:32:54;99849.69;;;17.67;86.39
6216;BME280;3141;49.234;9.326;2023-05-09T02:33:38;99848.91;;;17.73;85.94
6216;BME280;3141;49.234;9.326;2023-05-09T02:34:21;99850.75;;;17.73;85.94
6216;BME280;3141;49.234;9.326;2023-05-09T02:35:05;99850.78;;;17.79;85.35
6216;BME280;3141;49.234;9.326;2023-05-09T02:35:48;99853.72;;;17.84;85.21
6216;BME280;3141;49.234;9.326;2023-05-09T02:36:31;99846.53;;;17.91;84.67
6216;BME280;3141;49.234;9.326;2023-05-09T02:37:14;99852.50;;;17.93;84.70
6216;BME280;3141;49.234;9.326;2023-05-09T02:37:58;99851.88;;;17.91;84.49
6216;BME280;3141;49.234;9.326;2023-05-09T02:38:40;99852.84;;;17.77;85.04
6216;BME280;3141;49.234;9.326;2023-05-09T02:39:23;99857.41;;;17.83;85.24
6216;BME280;3141;49.234;9.326;2023-05-09T02:40:06;99850.44;;;17.89;85.04
6216;BME280;3141;49.234;9.326;2023-05-09T02:40:50;99851.03;;;17.84;85.27
6216;BME280;3141;49.234;9.326;2023-05-09T02:41:32;99841.78;;;17.87;85.10
6216;BME280;3141;49.234;9.326;2023-05-09T02:42:19;99849.59;;;17.88;84.90
6216;BME280;3141;49.234;9.326;2023-05-09T02:43:02;99843.25;;;17.89;85.19
6216;BME280;3141;49.234;9.326;2023-05-09T02:43:45;99850.22;;;17.90;84.75
6216;BME280;3141;49.234;9.326;2023-05-09T02:44:27;99848.00;;;17.94;84.20
6216;BME280;3141;49.234;9.326;2023-05-09T02:45:09;99849.03;;;17.99;83.87
6216;BME280;3141;49.234;9.326;2023-05-09T02:45:52;99848.41;;;17.97;83.88
6216;BME280;3141;49.234;9.326;2023-05-09T02:46:34;99839.97;;;17.94;83.84
6216;BME280;3141;49.234;9.326;2023-05-09T02:47:17;99842.22;;;17.90;84.23
6216;BME280;3141;49.234;9.326;2023-05-09T02:47:59;99841.16;;;17.91;83.81
6216;BME280;3141;49.234;9.326;2023-05-09T02:48:41;99837.69;;;17.91;83.44
6216;BME280;3141;49.234;9.326;2023-05-09T02:49:23;99839.94;;;17.87;84.23
6216;BME280;3141;49.234;9.326;2023-05-09T02:50:06;99838.91;;;17.88;84.24
6216;BME280;3141;49.234;9.326;2023-05-09T02:50:49;99845.75;;;17.97;83.96
6216;BME280;3141;49.234;9.326;2023-05-09T02:51:31;99835.88;;;17.98;83.87
6216;BME280;3141;49.234;9.326;2023-05-09T02:52:13;99837.31;;;18.00;83.75
6216;BME280;3141;49.234;9.326;2023-05-09T02:52:56;99841.22;;;17.98;83.50
6216;BME280;3141;49.234;9.326;2023-05-09T02:53:38;99834.63;;;18.00;83.41
6216;BME280;3141;49.234;9.326;2023-05-09T02:54:20;99841.25;;;18.04;83.44
6216;BME280;3141;49.234;9.326;2023-05-09T02:55:03;99833.41;;;18.03;83.35
6216;BME280;3141;49.234;9.326;2023-05-09T02:55:45;99837.53;;;18.05;82.82
6216;BME280;3141;49.234;9.326;2023-05-09T02:56:28;99838.97;;;18.01;83.57
6216;BME280;3141;49.234;9.326;2023-05-09T02:57:10;99837.94;;;18.02;83.46
6216;BME280;3141;49.234;9.326;2023-05-09T02:57:52;99830.53;;;18.04;83.28
6216;BME280;3141;49.234;9.326;2023-05-09T02:58:35;99833.63;;;18.01;83.78
6216;BME280;3141;49.234;9.326;2023-05-09T02:59:17;99831.16;;;18.00;83.77
6216;BME280;3141;49.234;9.326;2023-05-09T03:00:01;99835.88;;;17.98;83.87
6216;BME280;3141;49.234;9.326;2023-05-09T03:00:43;99833.63;;;18.01;83.59
6216;BME280;3141;49.234;9.326;2023-05-09T03:01:25;99838.75;;;17.96;84.29
6216;BME280;3141;49.234;9.326;2023-05-09T03:02:07;99838.13;;;17.94;84.19
6216;BME280;3141;49.234;9.326;2023-05-09T03:02:50;99836.66;;;17.92;84.31
6216;BME280;3141;49.234;9.326;2023-05-09T03:03:32;99837.03;;;17.82;84.41
6216;BME280;3141;49.234;9.326;2023-05-09T03:04:15;99833.72;;;17.80;84.84
6216;BME280;3141;49.234;9.326;2023-05-09T03:04:58;99836.81;;;17.77;84.93
6216;BME280;3141;49.234;9.326;2023-05-09T03:05:41;99823.44;;;17.77;85.21
6216;BME280;3141;49.234;9.326;2023-05-09T03:06:23;99826.28;;;17.76;85.27
6216;BME280;3141;49.234;9.326;2023-05-09T03:07:05;99823.81;;;17.74;85.28
6216;BME280;3141;49.234;9.326;2023-05-09T03:07:48;99830.84;;;17.82;85.03
6216;BME280;3141;49.234;9.326;2023-05-09T03:08:32;99827.91;;;17.70;85.18
6216;BME280;3141;49.234;9.326;2023-05-09T03:09:14;99827.72;;;17.72;85.70
6216;BME280;3141;49.234;9.326;2023-05-09T03:09:56;99835.09;;;17.70;85.35
6216;BME280;3141;49.234;9.326;2023-05-09T03:10:39;99827.28;;;17.68;85.48
6216;BME280;3141;49.234;9.326;2023-05-09T03:11:21;99824.19;;;17.65;85.77
6216;BME280;3141;49.234;9.326;2023-05-09T03:12:04;99827.69;;;17.65;85.84
6216;BME280;3141;49.234;9.326;2023-05-09T03:12:46;99828.28;;;17.67;85.55
6216;BME280;3141;49.234;9.326;2023-05-09T03:13:29;99819.50;;;17.73;85.60
6216;BME280;3141;49.234;9.326;2023-05-09T03:14:11;99820.69;;;17.71;85.71
6216;BME280;3141;49.234;9.326;2023-05-09T03:14:55;99822.34;;;17.65;85.83
6216;BME280;3141;49.234;9.326;2023-05-09T03:15:38;99830.38;;;17.65;85.48
6216;BME280;3141;49.234;9.326;2023-05-09T03:16:20;99820.13;;;17.75;85.00
6216;BME280;3141;49.234;9.326;2023-05-09T03:17:02;99824.25;;;17.78;84.77
6216;BME280;3141;49.234;9.326;2023-05-09T03:17:45;99822.63;;;17.83;84.41
6216;BME280;3141;49.234;9.326;2023-05-09T03:18:27;99823.28;;;17.92;84.08
6216;BME280;3141;49.234;9.326;2023-05-09T03:19:09;99817.28;;;17.83;84.51
6216;BME280;3141;49.234;9.326;2023-05-09T03:19:52;99823.03;;;17.80;84.74
6216;BME280;3141;49.234;9.326;2023-05-09T03:20:34;99822.19;;;17.80;84.79
6216;BME280;3141;49.234;9.326;2023-05-09T03:21:16;99823.03;;;17.80;84.88
6216;BME280;3141;49.234;9.326;2023-05-09T03:21:59;99809.25;;;17.83;84.74
6216;BME280;3141;49.234;9.326;2023-05-09T03:22:41;99817.50;;;17.88;83.96
6216;BME280;3141;49.234;9.326;2023-05-09T03:23:23;99816.88;;;17.86;83.73
6216;BME280;3141;49.234;9.326;2023-05-09T03:24:06;99816.00;;;17.79;83.83
6216;BME280;3141;49.234;9.326;2023-05-09T03:24:49;99809.66;;;17.80;84.04
6216;BME280;3141;49.234;9.326;2023-05-09T03:25:31;99811.28;;;17.81;83.76
6216;BME280;3141;49.234;9.326;2023-05-09T03:26:13;99815.63;;;17.82;83.85
6216;BME280;3141;49.234;9.326;2023-05-09T03:26:56;99817.69;;;17.80;83.88
6216;BME280;3141;49.234;9.326;2023-05-09T03:27:38;99818.94;;;17.84;83.84
6216;BME280;3141;49.234;9.326;2023-05-09T03:28:20;99815.03;;;17.87;83.71
6216;BME280;3141;49.234;9.326;2023-05-09T03:29:03;99819.97;;;17.90;83.43
6216;BME280;3141;49.234;9.326;2023-05-09T03:29:45;99821.00;;;17.82;83.66
6216;BME280;3141;49.234;9.326;2023-05-09T03:30:27;99819.53;;;17.86;83.63
6216;BME280;3141;49.234;9.326;2023-05-09T03:31:10;99820.41;;;17.93;83.11
6216;BME280;3141;49.234;9.326;2023-05-09T03:31:52;99817.28;;;17.83;83.35
6216;BME280;3141;49.234;9.326;2023-05-09T03:32:34;99820.19;;;17.88;83.22
6216;BME280;3141;49.234;9.326;2023-05-09T03:33:17;99826.38;;;17.89;83.24
6216;BME280;3141;49.234;9.326;2023-05-09T03:33:59;99823.69;;;17.89;83.20
6216;BME280;3141;49.234;9.326;2023-05-09T03:34:41;99814.59;;;17.83;83.17
6216;BME280;3141;49.234;9.326;2023-05-09T03:35:24;99820.56;;;17.79;83.36
6216;BME280;3141;49.234;9.326;2023-05-09T03:36:06;99819.50;;;17.73;83.39
6216;BME280;3141;49.234;9.326;2023-05-09T03:36:49;99813.53;;;17.78;83.75
6216;BME280;3141;49.234;9.326;2023-05-09T03:37:31;99810.25;;;17.76;83.55
6216;BME280;3141;49.234;9.326;2023-05-09T03:38:13;99815.22;;;17.79;83.72
6216;BME280;3141;49.234;9.326;2023-05-09T03:38:56;99813.53;;;17.78;83.30
6216;BME280;3141;49.234;9.326;2023-05-09T03:39:38;99807.75;;;17.74;83.78
6216;BME280;3141;49.234;9.326;2023-05-09T03:40:20;99810.44;;;17.74;83.41
6216;BME280;3141;49.234;9.326;2023-05-09T03:41:03;99806.97;;;17.74;83.75
6216;BME280;3141;49.234;9.326;2023-05-09T03:41:45;99806.91;;;17.67;84.04
6216;BME280;3141;49.234;9.326;2023-05-09T03:42:27;99800.78;;;17.73;83.85
6216;BME280;3141;49.234;9.326;2023-05-09T03:43:10;99806.13;;;17.73;83.75
6216;BME280;3141;49.234;9.326;2023-05-09T03:43:52;99806.13;;;17.73;83.68
6216;BME280;3141;49.234;9.326;2023-05-09T03:44:34;99802.63;;;17.79;83.67
6216;BME280;3141;49.234;9.326;2023-05-09T03:45:17;99799.19;;;17.85;83.40
6216;BME280;3141;49.234;9.326;2023-05-09T03:45:59;99806.59;;;17.83;83.80
6216;BME280;3141;49.234;9.326;2023-05-09T03:46:41;99808.25;;;17.84;83.54
6216;BME280;3141;49.234;9.326;2023-05-09T03:47:24;99800.81;;;17.86;83.25
6216;BME280;3141;49.234;9.326;2023-05-09T03:48:06;99808.03;;;17.86;83.39
6216;BME280;3141;49.234;9.326;2023-05-09T03:48:50;99807.63;;;17.82;83.35
6216;BME280;3141;49.234;9.326;2023-05-09T03:49:32;99811.31;;;17.88;83.25
6216;BME280;3141;49.234;9.326;2023-05-09T03:50:15;99811.31;;;17.88;83.54
6216;BME280;3141;49.234;9.326;2023-05-09T03:50:57;99805.38;;;17.92;83.02
6216;BME280;3141;49.234;9.326;2023-05-09T03:51:40;99816.53;;;17.96;82.61
6216;BME280;3141;49.234;9.326;2023-05-09T03:52:22;99810.34;;;17.95;82.70
6216;BME280;3141;49.234;9.326;2023-05-09T03:53:04;99807.66;;;17.95;82.83
6216;BME280;3141;49.234;9.326;2023-05-09T03:53:47;99809.06;;;17.91;82.71
6216;BME280;3141;49.234;9.326;2023-05-09T03:54:30;99801.25;;;17.90;83.65
6216;BME280;3141;49.234;9.326;2023-05-09T03:55:12;99813.19;;;17.87;84.05
6216;BME280;3141;49.234;9.326;2023-05-09T03:55:54;99804.34;;;17.87;83.54
6216;BME280;3141;49.234;9.326;2023-05-09T03:56:37;99806.59;;;17.90;83.87
6216;BME280;3141;49.234;9.326;2023-05-09T03:57:19;99805.97;;;17.88;83.69
6216;BME280;3141;49.234;9.326;2023-05-09T03:58:02;99806.59;;;17.83;83.61
6216;BME280;3141;49.234;9.326;2023-05-09T03:58:44;99808.19;;;17.78;83.91
6216;BME280;3141;49.234;9.326;2023-05-09T03:59:27;99807.38;;;17.77;85.22
6216;BME280;3141;49.234;9.326;2023-05-09T04:00:09;99807.38;;;17.77;84.84
6216;BME280;3141;49.234;9.326;2023-05-09T04:00:52;99800.38;;;17.76;84.95
6216;BME280;3141;49.234;9.326;2023-05-09T04:01:34;99799.75;;;17.74;85.03
6216;BME280;3141;49.234;9.326;2023-05-09T04:02:17;99804.06;;;17.69;85.54
6216;BME280;3141;49.234;9.326;2023-05-09T04:02:59;99804.50;;;17.72;85.35
6216;BME280;3141;49.234;9.326;2023-05-09T04:03:41;99804.88;;;17.69;85.61
6216;BME280;3141;49.234;9.326;2023-05-09T04:04:24;99817.16;;;17.64;85.88
6216;BME280;3141;49.234;9.326;2023-05-09T04:05:06;99806.53;;;17.70;85.92